sensor_id;sensor_type;location;lat;lon;timestamp;P1;durP1;ratioP1;P2;durP2;ratioP2
68870;SDS011;55906;52.278;6.808;2023-05-07T00:00:29;8.18;;;6.85;;
68870;SDS011;55906;52.278;6.808;2023-05-07T00:02:56;6.57;;;5.85;;
68870;SDS011;55906;52.278;6.808;2023-05-07T00:05:24;6.73;;;5.60;;
68870;SDS011;55906;52.278;6.808;2023-05-07T00:07:50;7.78;;;6.28;;
68870;SDS011;55906;52.278;6.808;2023-05-07T00:10:17;7.20;;;6.35;;
68870;SDS011;55906;52.278;6.808;2023-05-07T00:12:44;7.32;;;6.38;;
68870;SDS011;55906;52.278;6.808;2023-05-07T00:15:11;8.25;;;7.43;;
68870;SDS011;55906;52.278;6.808;2023-05-07T00:17:38;6.90;;;5.83;;
68870;SDS011;55906;52.278;6.808;2023-05-07T00:20:05;8.82;;;5.97;;
68870;SDS011;55906;52.278;6.808;2023-05-07T00:22:33;8.90;;;7.35;;
68870;SDS011;55906;52.278;6.808;2023-05-07T00:25:00;6.80;;;5.95;;
68870;SDS011;55906;52.278;6.808;2023-05-07T00:27:26;8.02;;;6.35;;
68870;SDS011;55906;52.278;6.808;2023-05-07T00:29:53;6.57;;;5.30;;
68870;SDS011;55906;52.278;6.808;2023-05-07T00:32:20;8.63;;;7.07;;
68870;SDS011;55906;52.278;6.808;2023-05-07T00:34:46;8.52;;;6.72;;
68870;SDS011;55906;52.278;6.808;2023-05-07T00:37:13;7.72;;;6.25;;
68870;SDS011;55906;52.278;6.808;2023-05-07T00:39:41;6.82;;;5.82;;
68870;SDS011;55906;52.278;6.808;2023-05-07T00:42:07;7.70;;;6.30;;
68870;SDS011;55906;52.278;6.808;2023-05-07T00:44:34;8.23;;;5.65;;
68870;SDS011;55906;52.278;6.808;2023-05-07T00:47:01;5.97;;;5.28;;
68870;SDS011;55906;52.278;6.808;2023-05-07T00:49:31;6.80;;;5.88;;
68870;SDS011;55906;52.278;6.808;2023-05-07T00:52:04;8.15;;;6.88;;
68870;SDS011;55906;52.278;6.808;2023-05-07T00:54:32;8.30;;;7.40;;
68870;SDS011;55906;52.278;6.808;2023-05-07T00:57:02;6.45;;;5.55;;
68870;SDS011;55906;52.278;6.808;2023-05-07T00:59:30;6.90;;;5.90;;
68870;SDS011;55906;52.278;6.808;2023-05-07T01:01:57;7.18;;;6.05;;
68870;SDS011;55906;52.278;6.808;2023-05-07T01:04:24;7.35;;;6.55;;
68870;SDS011;55906;52.278;6.808;2023-05-07T01:06:52;8.07;;;7.10;;
68870;SDS011;55906;52.278;6.808;2023-05-07T01:09:20;8.30;;;7.13;;
68870;SDS011;55906;52.278;6.808;2023-05-07T01:11:48;8.40;;;7.10;;
68870;SDS011;55906;52.278;6.808;2023-05-07T01:14:18;8.05;;;6.63;;
68870;SDS011;55906;52.278;6.808;2023-05-07T01:16:45;8.70;;;6.97;;
68870;SDS011;55906;52.278;6.808;2023-05-07T01:19:12;8.83;;;7.33;;
68870;SDS011;55906;52.278;6.808;2023-05-07T01:21:41;8.23;;;6.65;;
68870;SDS011;55906;52.278;6.808;2023-05-07T01:24:12;8.82;;;6.72;;
68870;SDS011;55906;52.278;6.808;2023-05-07T01:26:40;10.88;;;7.72;;
68870;SDS011;55906;52.278;6.808;2023-05-07T01:29:07;11.95;;;10.15;;
68870;SDS011;55906;52.278;6.808;2023-05-07T01:31:34;10.57;;;8.77;;
68870;SDS011;55906;52.278;6.808;2023-05-07T01:34:02;12.32;;;10.00;;
68870;SDS011;55906;52.278;6.808;2023-05-07T01:36:31;10.65;;;8.63;;
68870;SDS011;55906;52.278;6.808;2023-05-07T01:38:59;10.68;;;8.05;;
68870;SDS011;55906;52.278;6.808;2023-05-07T01:41:27;10.70;;;9.05;;
68870;SDS011;55906;52.278;6.808;2023-05-07T01:43:55;12.53;;;10.03;;
68870;SDS011;55906;52.278;6.808;2023-05-07T01:46:24;10.95;;;9.48;;
68870;SDS011;55906;52.278;6.808;2023-05-07T01:48:52;9.80;;;8.23;;
68870;SDS011;55906;52.278;6.808;2023-05-07T01:51:19;10.55;;;8.55;;
68870;SDS011;55906;52.278;6.808;2023-05-07T01:53:47;11.35;;;8.02;;
68870;SDS011;55906;52.278;6.808;2023-05-07T01:56:15;12.97;;;9.10;;
68870;SDS011;55906;52.278;6.808;2023-05-07T01:58:44;14.23;;;10.57;;
68870;SDS011;55906;52.278;6.808;2023-05-07T02:01:11;12.60;;;9.77;;
68870;SDS011;55906;52.278;6.808;2023-05-07T02:03:39;11.55;;;8.63;;
68870;SDS011;55906;52.278;6.808;2023-05-07T02:06:05;10.68;;;8.45;;
68870;SDS011;55906;52.278;6.808;2023-05-07T02:08:32;13.50;;;9.30;;
68870;SDS011;55906;52.278;6.808;2023-05-07T02:10:59;12.48;;;8.98;;
68870;SDS011;55906;52.278;6.808;2023-05-07T02:13:26;13.55;;;8.05;;
68870;SDS011;55906;52.278;6.808;2023-05-07T02:15:56;13.82;;;10.45;;
68870;SDS011;55906;52.278;6.808;2023-05-07T02:18:23;12.70;;;10.07;;
68870;SDS011;55906;52.278;6.808;2023-05-07T02:20:49;13.20;;;9.37;;
68870;SDS011;55906;52.278;6.808;2023-05-07T02:23:16;14.25;;;10.43;;
68870;SDS011;55906;52.278;6.808;2023-05-07T02:25:42;16.40;;;11.38;;
68870;SDS011;55906;52.278;6.808;2023-05-07T02:28:09;14.02;;;10.52;;
68870;SDS011;55906;52.278;6.808;2023-05-07T02:30:36;14.38;;;10.55;;
68870;SDS011;55906;52.278;6.808;2023-05-07T02:33:04;16.60;;;12.00;;
68870;SDS011;55906;52.278;6.808;2023-05-07T02:35:31;16.27;;;11.45;;
68870;SDS011;55906;52.278;6.808;2023-05-07T02:37:58;18.17;;;12.90;;
68870;SDS011;55906;52.278;6.808;2023-05-07T02:40:24;16.02;;;11.32;;
68870;SDS011;55906;52.278;6.808;2023-05-07T02:42:51;19.38;;;12.95;;
68870;SDS011;55906;52.278;6.808;2023-05-07T02:45:17;13.43;;;10.17;;
68870;SDS011;55906;52.278;6.808;2023-05-07T02:47:44;16.13;;;11.27;;
68870;SDS011;55906;52.278;6.808;2023-05-07T02:50:13;19.85;;;13.80;;
68870;SDS011;55906;52.278;6.808;2023-05-07T02:52:39;18.77;;;12.73;;
68870;SDS011;55906;52.278;6.808;2023-05-07T02:55:06;17.38;;;12.93;;
68870;SDS011;55906;52.278;6.808;2023-05-07T02:57:33;16.53;;;12.20;;
68870;SDS011;55906;52.278;6.808;2023-05-07T03:00:07;19.73;;;13.57;;
68870;SDS011;55906;52.278;6.808;2023-05-07T03:02:36;15.85;;;11.93;;
68870;SDS011;55906;52.278;6.808;2023-05-07T03:05:03;17.42;;;12.43;;
68870;SDS011;55906;52.278;6.808;2023-05-07T03:07:32;18.25;;;13.32;;
68870;SDS011;55906;52.278;6.808;2023-05-07T03:09:58;15.80;;;11.07;;
68870;SDS011;55906;52.278;6.808;2023-05-07T03:12:25;16.55;;;12.00;;
68870;SDS011;55906;52.278;6.808;2023-05-07T03:14:52;17.92;;;13.23;;
68870;SDS011;55906;52.278;6.808;2023-05-07T03:17:18;20.00;;;13.63;;
68870;SDS011;55906;52.278;6.808;2023-05-07T03:19:45;20.85;;;15.50;;
68870;SDS011;55906;52.278;6.808;2023-05-07T03:22:12;17.70;;;13.07;;
68870;SDS011;55906;52.278;6.808;2023-05-07T03:24:40;17.08;;;12.25;;
68870;SDS011;55906;52.278;6.808;2023-05-07T03:27:06;19.55;;;14.23;;
68870;SDS011;55906;52.278;6.808;2023-05-07T03:29:33;17.55;;;12.80;;
68870;SDS011;55906;52.278;6.808;2023-05-07T03:32:00;18.45;;;13.88;;
68870;SDS011;55906;52.278;6.808;2023-05-07T03:34:26;22.23;;;15.47;;
68870;SDS011;55906;52.278;6.808;2023-05-07T03:36:53;17.90;;;13.10;;
68870;SDS011;55906;52.278;6.808;2023-05-07T03:39:19;18.33;;;13.85;;
68870;SDS011;55906;52.278;6.808;2023-05-07T03:41:47;18.95;;;12.98;;
68870;SDS011;55906;52.278;6.808;2023-05-07T03:44:14;22.58;;;15.38;;
68870;SDS011;55906;52.278;6.808;2023-05-07T03:46:41;19.63;;;14.30;;
68870;SDS011;55906;52.278;6.808;2023-05-07T03:49:07;18.20;;;12.55;;
68870;SDS011;55906;52.278;6.808;2023-05-07T03:51:34;19.30;;;13.25;;
68870;SDS011;55906;52.278;6.808;2023-05-07T03:54:01;16.48;;;11.90;;
68870;SDS011;55906;52.278;6.808;2023-05-07T03:56:28;19.60;;;14.52;;
68870;SDS011;55906;52.278;6.808;2023-05-07T03:58:57;18.67;;;14.00;;
68870;SDS011;55906;52.278;6.808;2023-05-07T04:01:24;20.98;;;15.27;;
68870;SDS011;55906;52.278;6.808;2023-05-07T04:03:50;21.20;;;13.60;;
68870;SDS011;55906;52.278;6.808;2023-05-07T04:06:17;15.88;;;11.07;;
68870;SDS011;55906;52.278;6.808;2023-05-07T04:08:44;20.05;;;14.70;;
68870;SDS011;55906;52.278;6.808;2023-05-07T04:11:10;20.03;;;14.00;;
68870;SDS011;55906;52.278;6.808;2023-05-07T04:13:37;18.95;;;12.15;;
68870;SDS011;55906;52.278;6.808;2023-05-07T04:16:05;27.95;;;18.55;;
68870;SDS011;55906;52.278;6.808;2023-05-07T04:18:32;19.77;;;15.25;;
68870;SDS011;55906;52.278;6.808;2023-05-07T04:20:59;16.98;;;12.50;;
68870;SDS011;55906;52.278;6.808;2023-05-07T04:23:25;20.03;;;13.13;;
68870;SDS011;55906;52.278;6.808;2023-05-07T04:25:52;23.20;;;16.20;;
68870;SDS011;55906;52.278;6.808;2023-05-07T04:28:19;22.27;;;15.50;;
68870;SDS011;55906;52.278;6.808;2023-05-07T04:30:46;22.40;;;15.00;;
68870;SDS011;55906;52.278;6.808;2023-05-07T04:33:14;20.63;;;13.88;;
68870;SDS011;55906;52.278;6.808;2023-05-07T04:35:42;19.60;;;13.83;;
68870;SDS011;55906;52.278;6.808;2023-05-07T04:38:08;17.88;;;13.23;;
68870;SDS011;55906;52.278;6.808;2023-05-07T04:40:35;18.92;;;13.93;;
68870;SDS011;55906;52.278;6.808;2023-05-07T04:43:02;20.10;;;13.27;;
68870;SDS011;55906;52.278;6.808;2023-05-07T04:45:29;24.70;;;17.20;;
68870;SDS011;55906;52.278;6.808;2023-05-07T04:47:56;19.87;;;13.40;;
68870;SDS011;55906;52.278;6.808;2023-05-07T04:50:24;23.48;;;14.82;;
68870;SDS011;55906;52.278;6.808;2023-05-07T04:52:51;16.95;;;11.73;;
68870;SDS011;55906;52.278;6.808;2023-05-07T04:55:17;22.38;;;14.00;;
68870;SDS011;55906;52.278;6.808;2023-05-07T04:57:44;22.83;;;15.15;;
68870;SDS011;55906;52.278;6.808;2023-05-07T05:00:11;21.57;;;15.17;;
68870;SDS011;55906;52.278;6.808;2023-05-07T05:02:39;20.90;;;14.85;;
68870;SDS011;55906;52.278;6.808;2023-05-07T05:05:06;18.77;;;13.00;;
68870;SDS011;55906;52.278;6.808;2023-05-07T05:07:34;19.15;;;13.45;;
68870;SDS011;55906;52.278;6.808;2023-05-07T05:10:01;19.67;;;13.15;;
68870;SDS011;55906;52.278;6.808;2023-05-07T05:12:28;19.23;;;13.20;;
68870;SDS011;55906;52.278;6.808;2023-05-07T05:14:55;26.52;;;16.77;;
68870;SDS011;55906;52.278;6.808;2023-05-07T05:17:22;26.45;;;18.15;;
68870;SDS011;55906;52.278;6.808;2023-05-07T05:19:48;24.92;;;15.77;;
68870;SDS011;55906;52.278;6.808;2023-05-07T05:22:16;24.75;;;15.75;;
68870;SDS011;55906;52.278;6.808;2023-05-07T05:24:44;19.67;;;13.87;;
68870;SDS011;55906;52.278;6.808;2023-05-07T05:27:10;26.27;;;16.63;;
68870;SDS011;55906;52.278;6.808;2023-05-07T05:29:37;20.95;;;13.80;;
68870;SDS011;55906;52.278;6.808;2023-05-07T05:32:03;20.50;;;14.25;;
68870;SDS011;55906;52.278;6.808;2023-05-07T05:34:30;20.85;;;14.52;;
68870;SDS011;55906;52.278;6.808;2023-05-07T05:36:58;21.37;;;14.93;;
68870;SDS011;55906;52.278;6.808;2023-05-07T05:39:25;23.10;;;15.50;;
68870;SDS011;55906;52.278;6.808;2023-05-07T05:41:53;29.13;;;18.35;;
68870;SDS011;55906;52.278;6.808;2023-05-07T05:44:19;24.88;;;15.48;;
68870;SDS011;55906;52.278;6.808;2023-05-07T05:46:46;19.75;;;13.77;;
68870;SDS011;55906;52.278;6.808;2023-05-07T05:49:14;25.50;;;14.37;;
68870;SDS011;55906;52.278;6.808;2023-05-07T05:51:41;21.98;;;15.52;;
68870;SDS011;55906;52.278;6.808;2023-05-07T05:54:07;24.17;;;15.93;;
68870;SDS011;55906;52.278;6.808;2023-05-07T05:56:34;22.88;;;14.90;;
68870;SDS011;55906;52.278;6.808;2023-05-07T05:59:02;27.92;;;16.95;;
68870;SDS011;55906;52.278;6.808;2023-05-07T06:01:29;30.13;;;18.70;;
68870;SDS011;55906;52.278;6.808;2023-05-07T06:03:55;30.67;;;19.30;;
68870;SDS011;55906;52.278;6.808;2023-05-07T06:06:22;28.15;;;18.15;;
68870;SDS011;55906;52.278;6.808;2023-05-07T06:08:49;23.10;;;16.23;;
68870;SDS011;55906;52.278;6.808;2023-05-07T06:11:15;20.92;;;15.20;;
68870;SDS011;55906;52.278;6.808;2023-05-07T06:13:42;26.97;;;17.97;;
68870;SDS011;55906;52.278;6.808;2023-05-07T06:16:10;21.90;;;15.57;;
68870;SDS011;55906;52.278;6.808;2023-05-07T06:18:36;26.38;;;17.63;;
68870;SDS011;55906;52.278;6.808;2023-05-07T06:21:03;21.52;;;14.57;;
68870;SDS011;55906;52.278;6.808;2023-05-07T06:23:30;26.77;;;17.95;;
68870;SDS011;55906;52.278;6.808;2023-05-07T06:25:57;21.90;;;14.93;;
68870;SDS011;55906;52.278;6.808;2023-05-07T06:28:23;22.42;;;15.35;;
68870;SDS011;55906;52.278;6.808;2023-05-07T06:30:50;23.38;;;16.50;;
68870;SDS011;55906;52.278;6.808;2023-05-07T06:33:18;24.63;;;16.50;;
68870;SDS011;55906;52.278;6.808;2023-05-07T06:35:45;28.63;;;18.05;;
68870;SDS011;55906;52.278;6.808;2023-05-07T06:38:11;22.03;;;14.50;;
68870;SDS011;55906;52.278;6.808;2023-05-07T06:40:38;20.67;;;13.75;;
68870;SDS011;55906;52.278;6.808;2023-05-07T06:43:04;24.27;;;17.08;;
68870;SDS011;55906;52.278;6.808;2023-05-07T06:45:31;24.23;;;16.63;;
68870;SDS011;55906;52.278;6.808;2023-05-07T06:47:58;22.88;;;15.57;;
68870;SDS011;55906;52.278;6.808;2023-05-07T06:50:26;24.27;;;16.43;;
68870;SDS011;55906;52.278;6.808;2023-05-07T06:52:52;22.35;;;16.05;;
68870;SDS011;55906;52.278;6.808;2023-05-07T06:55:19;23.35;;;15.82;;
68870;SDS011;55906;52.278;6.808;2023-05-07T06:57:45;26.83;;;18.02;;
68870;SDS011;55906;52.278;6.808;2023-05-07T07:00:12;22.23;;;14.32;;
68870;SDS011;55906;52.278;6.808;2023-05-07T07:02:40;27.00;;;17.20;;
68870;SDS011;55906;52.278;6.808;2023-05-07T07:05:07;24.83;;;16.20;;
68870;SDS011;55906;52.278;6.808;2023-05-07T07:07:35;21.63;;;15.35;;
68870;SDS011;55906;52.278;6.808;2023-05-07T07:10:01;18.13;;;13.02;;
68870;SDS011;55906;52.278;6.808;2023-05-07T07:12:29;22.90;;;15.82;;
68870;SDS011;55906;52.278;6.808;2023-05-07T07:14:56;26.80;;;17.67;;
68870;SDS011;55906;52.278;6.808;2023-05-07T07:17:23;19.90;;;15.05;;
68870;SDS011;55906;52.278;6.808;2023-05-07T07:19:49;21.88;;;15.63;;
68870;SDS011;55906;52.278;6.808;2023-05-07T07:22:16;24.23;;;15.93;;
68870;SDS011;55906;52.278;6.808;2023-05-07T07:24:44;23.50;;;16.63;;
68870;SDS011;55906;52.278;6.808;2023-05-07T07:27:10;16.30;;;12.10;;
68870;SDS011;55906;52.278;6.808;2023-05-07T07:29:37;20.10;;;14.50;;
68870;SDS011;55906;52.278;6.808;2023-05-07T07:32:04;16.50;;;12.18;;
68870;SDS011;55906;52.278;6.808;2023-05-07T07:34:31;19.42;;;13.57;;
68870;SDS011;55906;52.278;6.808;2023-05-07T07:36:57;21.15;;;15.20;;
68870;SDS011;55906;52.278;6.808;2023-05-07T07:39:30;16.00;;;12.33;;
68870;SDS011;55906;52.278;6.808;2023-05-07T07:41:58;17.35;;;12.20;;
68870;SDS011;55906;52.278;6.808;2023-05-07T07:44:25;18.17;;;12.05;;
68870;SDS011;55906;52.278;6.808;2023-05-07T07:46:51;16.98;;;12.15;;
68870;SDS011;55906;52.278;6.808;2023-05-07T07:49:18;16.30;;;11.63;;
68870;SDS011;55906;52.278;6.808;2023-05-07T07:51:45;23.10;;;15.30;;
68870;SDS011;55906;52.278;6.808;2023-05-07T07:54:11;20.27;;;14.20;;
68870;SDS011;55906;52.278;6.808;2023-05-07T07:56:38;22.00;;;14.48;;
68870;SDS011;55906;52.278;6.808;2023-05-07T07:59:06;16.55;;;11.68;;
68870;SDS011;55906;52.278;6.808;2023-05-07T08:01:33;17.05;;;12.88;;
68870;SDS011;55906;52.278;6.808;2023-05-07T08:03:59;15.73;;;12.40;;
68870;SDS011;55906;52.278;6.808;2023-05-07T08:06:28;16.42;;;12.35;;
68870;SDS011;55906;52.278;6.808;2023-05-07T08:08:54;21.58;;;15.75;;
68870;SDS011;55906;52.278;6.808;2023-05-07T08:11:21;16.17;;;11.93;;
68870;SDS011;55906;52.278;6.808;2023-05-07T08:13:48;20.98;;;15.07;;
68870;SDS011;55906;52.278;6.808;2023-05-07T08:16:16;15.27;;;10.80;;
68870;SDS011;55906;52.278;6.808;2023-05-07T08:18:43;15.40;;;10.52;;
68870;SDS011;55906;52.278;6.808;2023-05-07T08:21:09;17.35;;;13.13;;
68870;SDS011;55906;52.278;6.808;2023-05-07T08:23:36;21.92;;;15.25;;
68870;SDS011;55906;52.278;6.808;2023-05-07T08:26:03;18.40;;;14.10;;
68870;SDS011;55906;52.278;6.808;2023-05-07T08:28:30;16.57;;;11.90;;
68870;SDS011;55906;52.278;6.808;2023-05-07T08:30:56;15.55;;;11.70;;
68870;SDS011;55906;52.278;6.808;2023-05-07T08:33:27;16.30;;;11.23;;
68870;SDS011;55906;52.278;6.808;2023-05-07T08:35:53;17.02;;;12.60;;
68870;SDS011;55906;52.278;6.808;2023-05-07T08:38:20;19.33;;;14.60;;
68870;SDS011;55906;52.278;6.808;2023-05-07T08:40:46;17.97;;;12.07;;
68870;SDS011;55906;52.278;6.808;2023-05-07T08:43:13;23.48;;;16.35;;
68870;SDS011;55906;52.278;6.808;2023-05-07T08:45:40;17.30;;;12.82;;
68870;SDS011;55906;52.278;6.808;2023-05-07T08:48:08;19.63;;;14.25;;
68870;SDS011;55906;52.278;6.808;2023-05-07T08:50:41;15.90;;;11.70;;
68870;SDS011;55906;52.278;6.808;2023-05-07T08:53:08;15.17;;;11.40;;
68870;SDS011;55906;52.278;6.808;2023-05-07T08:55:35;12.82;;;10.60;;
68870;SDS011;55906;52.278;6.808;2023-05-07T08:58:01;18.25;;;12.70;;
68870;SDS011;55906;52.278;6.808;2023-05-07T09:00:28;21.10;;;14.23;;
68870;SDS011;55906;52.278;6.808;2023-05-07T09:02:55;21.40;;;14.40;;
68870;SDS011;55906;52.278;6.808;2023-05-07T09:05:22;13.97;;;10.47;;
68870;SDS011;55906;52.278;6.808;2023-05-07T09:07:50;13.77;;;10.32;;
68870;SDS011;55906;52.278;6.808;2023-05-07T09:10:16;13.05;;;9.38;;
68870;SDS011;55906;52.278;6.808;2023-05-07T09:12:43;11.88;;;9.55;;
68870;SDS011;55906;52.278;6.808;2023-05-07T09:15:12;12.23;;;9.48;;
68870;SDS011;55906;52.278;6.808;2023-05-07T09:17:39;12.53;;;10.03;;
68870;SDS011;55906;52.278;6.808;2023-05-07T09:20:07;13.23;;;10.48;;
68870;SDS011;55906;52.278;6.808;2023-05-07T09:22:36;15.02;;;10.75;;
68870;SDS011;55906;52.278;6.808;2023-05-07T09:25:05;11.65;;;9.38;;
68870;SDS011;55906;52.278;6.808;2023-05-07T09:27:33;12.77;;;9.65;;
68870;SDS011;55906;52.278;6.808;2023-05-07T09:30:02;13.63;;;9.30;;
68870;SDS011;55906;52.278;6.808;2023-05-07T09:32:29;11.73;;;9.38;;
68870;SDS011;55906;52.278;6.808;2023-05-07T09:34:56;12.98;;;9.98;;
68870;SDS011;55906;52.278;6.808;2023-05-07T09:37:23;14.73;;;11.40;;
68870;SDS011;55906;52.278;6.808;2023-05-07T09:39:52;15.05;;;11.07;;
68870;SDS011;55906;52.278;6.808;2023-05-07T09:42:24;11.33;;;8.97;;
68870;SDS011;55906;52.278;6.808;2023-05-07T09:44:51;12.82;;;10.38;;
68870;SDS011;55906;52.278;6.808;2023-05-07T09:47:18;10.00;;;7.97;;
68870;SDS011;55906;52.278;6.808;2023-05-07T09:49:47;13.82;;;10.05;;
68870;SDS011;55906;52.278;6.808;2023-05-07T09:52:14;12.70;;;9.73;;
68870;SDS011;55906;52.278;6.808;2023-05-07T09:54:42;11.33;;;8.60;;
68870;SDS011;55906;52.278;6.808;2023-05-07T09:57:10;13.73;;;10.50;;
68870;SDS011;55906;52.278;6.808;2023-05-07T09:59:39;11.80;;;9.55;;
68870;SDS011;55906;52.278;6.808;2023-05-07T10:02:09;13.30;;;10.30;;
68870;SDS011;55906;52.278;6.808;2023-05-07T10:04:36;12.55;;;9.60;;
68870;SDS011;55906;52.278;6.808;2023-05-07T10:07:03;10.43;;;8.00;;
68870;SDS011;55906;52.278;6.808;2023-05-07T10:09:31;12.15;;;8.90;;
68870;SDS011;55906;52.278;6.808;2023-05-07T10:11:58;10.13;;;7.75;;
68870;SDS011;55906;52.278;6.808;2023-05-07T10:14:25;12.18;;;8.25;;
68870;SDS011;55906;52.278;6.808;2023-05-07T10:16:55;10.40;;;8.32;;
68870;SDS011;55906;52.278;6.808;2023-05-07T10:19:23;9.93;;;8.30;;
68870;SDS011;55906;52.278;6.808;2023-05-07T10:21:53;9.88;;;7.78;;
68870;SDS011;55906;52.278;6.808;2023-05-07T10:24:22;12.43;;;8.82;;
68870;SDS011;55906;52.278;6.808;2023-05-07T10:26:52;11.05;;;8.52;;
68870;SDS011;55906;52.278;6.808;2023-05-07T10:29:21;11.40;;;8.38;;
68870;SDS011;55906;52.278;6.808;2023-05-07T10:32:03;11.10;;;8.27;;
68870;SDS011;55906;52.278;6.808;2023-05-07T10:34:42;9.77;;;7.20;;
68870;SDS011;55906;52.278;6.808;2023-05-07T10:37:10;10.73;;;8.82;;
68870;SDS011;55906;52.278;6.808;2023-05-07T10:39:38;10.13;;;8.00;;
68870;SDS011;55906;52.278;6.808;2023-05-07T10:42:09;13.68;;;9.80;;
68870;SDS011;55906;52.278;6.808;2023-05-07T10:44:36;11.40;;;9.07;;
68870;SDS011;55906;52.278;6.808;2023-05-07T10:47:05;13.23;;;9.75;;
68870;SDS011;55906;52.278;6.808;2023-05-07T10:49:34;9.75;;;6.82;;
68870;SDS011;55906;52.278;6.808;2023-05-07T10:52:10;15.02;;;10.98;;
68870;SDS011;55906;52.278;6.808;2023-05-07T10:54:38;11.65;;;8.73;;
68870;SDS011;55906;52.278;6.808;2023-05-07T10:59:59;8.80;;;7.00;;
68870;SDS011;55906;52.278;6.808;2023-05-07T11:02:37;11.95;;;8.45;;
68870;SDS011;55906;52.278;6.808;2023-05-07T11:05:34;9.45;;;7.55;;
68870;SDS011;55906;52.278;6.808;2023-05-07T11:08:02;11.45;;;8.65;;
68870;SDS011;55906;52.278;6.808;2023-05-07T11:10:49;10.47;;;7.27;;
68870;SDS011;55906;52.278;6.808;2023-05-07T11:13:17;9.32;;;6.60;;
68870;SDS011;55906;52.278;6.808;2023-05-07T11:15:45;7.97;;;6.63;;
68870;SDS011;55906;52.278;6.808;2023-05-07T11:18:14;11.18;;;9.07;;
68870;SDS011;55906;52.278;6.808;2023-05-07T11:20:46;9.18;;;7.20;;
68870;SDS011;55906;52.278;6.808;2023-05-07T11:26:24;11.18;;;8.70;;
68870;SDS011;55906;52.278;6.808;2023-05-07T11:28:51;10.35;;;7.60;;
68870;SDS011;55906;52.278;6.808;2023-05-07T11:31:22;13.88;;;9.65;;
68870;SDS011;55906;52.278;6.808;2023-05-07T11:33:52;12.45;;;9.52;;
68870;SDS011;55906;52.278;6.808;2023-05-07T11:36:20;13.70;;;9.33;;
68870;SDS011;55906;52.278;6.808;2023-05-07T11:38:48;8.48;;;6.53;;
68870;SDS011;55906;52.278;6.808;2023-05-07T11:41:14;8.63;;;5.95;;
68870;SDS011;55906;52.278;6.808;2023-05-07T11:43:55;9.77;;;6.70;;
68870;SDS011;55906;52.278;6.808;2023-05-07T11:46:22;8.30;;;6.07;;
68870;SDS011;55906;52.278;6.808;2023-05-07T11:48:49;7.70;;;5.37;;
68870;SDS011;55906;52.278;6.808;2023-05-07T11:51:21;11.75;;;8.00;;
68870;SDS011;55906;52.278;6.808;2023-05-07T11:53:48;7.68;;;5.75;;
68870;SDS011;55906;52.278;6.808;2023-05-07T11:56:16;8.95;;;5.78;;
68870;SDS011;55906;52.278;6.808;2023-05-07T11:58:45;10.48;;;7.78;;
68870;SDS011;55906;52.278;6.808;2023-05-07T12:01:12;8.70;;;6.73;;
68870;SDS011;55906;52.278;6.808;2023-05-07T12:03:40;8.52;;;6.03;;
68870;SDS011;55906;52.278;6.808;2023-05-07T12:06:09;9.98;;;7.40;;
68870;SDS011;55906;52.278;6.808;2023-05-07T12:08:37;7.70;;;5.82;;
68870;SDS011;55906;52.278;6.808;2023-05-07T12:11:06;9.55;;;7.57;;
68870;SDS011;55906;52.278;6.808;2023-05-07T12:13:34;8.07;;;5.60;;
68870;SDS011;55906;52.278;6.808;2023-05-07T12:16:01;9.90;;;7.28;;
68870;SDS011;55906;52.278;6.808;2023-05-07T12:18:30;8.80;;;5.18;;
68870;SDS011;55906;52.278;6.808;2023-05-07T12:20:57;10.23;;;7.57;;
68870;SDS011;55906;52.278;6.808;2023-05-07T12:23:25;8.63;;;5.68;;
68870;SDS011;55906;52.278;6.808;2023-05-07T12:25:53;8.30;;;5.30;;
68870;SDS011;55906;52.278;6.808;2023-05-07T12:28:20;7.45;;;4.82;;
68870;SDS011;55906;52.278;6.808;2023-05-07T12:30:47;8.02;;;4.80;;
68870;SDS011;55906;52.278;6.808;2023-05-07T12:33:15;8.63;;;5.57;;
68870;SDS011;55906;52.278;6.808;2023-05-07T12:35:43;8.65;;;5.55;;
68870;SDS011;55906;52.278;6.808;2023-05-07T12:38:11;11.93;;;6.53;;
68870;SDS011;55906;52.278;6.808;2023-05-07T12:40:39;6.65;;;4.70;;
68870;SDS011;55906;52.278;6.808;2023-05-07T12:43:08;8.93;;;5.20;;
68870;SDS011;55906;52.278;6.808;2023-05-07T12:45:41;6.80;;;4.82;;
68870;SDS011;55906;52.278;6.808;2023-05-07T12:48:09;7.00;;;5.07;;
68870;SDS011;55906;52.278;6.808;2023-05-07T12:50:36;7.57;;;5.00;;
68870;SDS011;55906;52.278;6.808;2023-05-07T12:53:03;7.30;;;5.32;;
68870;SDS011;55906;52.278;6.808;2023-05-07T12:55:31;8.95;;;5.78;;
68870;SDS011;55906;52.278;6.808;2023-05-07T12:58:00;8.50;;;5.38;;
68870;SDS011;55906;52.278;6.808;2023-05-07T13:00:35;8.52;;;6.22;;
68870;SDS011;55906;52.278;6.808;2023-05-07T13:03:03;5.70;;;4.13;;
68870;SDS011;55906;52.278;6.808;2023-05-07T13:05:30;8.93;;;6.40;;
68870;SDS011;55906;52.278;6.808;2023-05-07T13:07:57;6.60;;;4.60;;
68870;SDS011;55906;52.278;6.808;2023-05-07T13:10:24;6.85;;;4.10;;
68870;SDS011;55906;52.278;6.808;2023-05-07T13:12:51;7.38;;;5.22;;
68870;SDS011;55906;52.278;6.808;2023-05-07T13:15:18;7.50;;;4.73;;
68870;SDS011;55906;52.278;6.808;2023-05-07T13:17:47;6.43;;;4.03;;
68870;SDS011;55906;52.278;6.808;2023-05-07T13:20:13;6.55;;;3.80;;
68870;SDS011;55906;52.278;6.808;2023-05-07T13:22:40;5.97;;;3.67;;
68870;SDS011;55906;52.278;6.808;2023-05-07T13:25:07;7.43;;;5.32;;
68870;SDS011;55906;52.278;6.808;2023-05-07T13:27:34;7.70;;;4.53;;
68870;SDS011;55906;52.278;6.808;2023-05-07T13:30:02;6.30;;;4.35;;
68870;SDS011;55906;52.278;6.808;2023-05-07T13:32:29;6.82;;;4.70;;
68870;SDS011;55906;52.278;6.808;2023-05-07T13:34:58;6.38;;;4.40;;
68870;SDS011;55906;52.278;6.808;2023-05-07T13:37:25;7.47;;;4.50;;
68870;SDS011;55906;52.278;6.808;2023-05-07T13:39:51;6.43;;;3.93;;
68870;SDS011;55906;52.278;6.808;2023-05-07T13:42:18;7.00;;;4.47;;
68870;SDS011;55906;52.278;6.808;2023-05-07T13:44:45;6.45;;;4.10;;
68870;SDS011;55906;52.278;6.808;2023-05-07T13:47:11;5.93;;;4.07;;
68870;SDS011;55906;52.278;6.808;2023-05-07T13:49:38;7.88;;;4.47;;
68870;SDS011;55906;52.278;6.808;2023-05-07T13:52:06;6.33;;;3.70;;
68870;SDS011;55906;52.278;6.808;2023-05-07T13:54:32;5.80;;;3.75;;
68870;SDS011;55906;52.278;6.808;2023-05-07T13:56:59;7.80;;;4.78;;
68870;SDS011;55906;52.278;6.808;2023-05-07T13:59:26;6.60;;;4.20;;
68870;SDS011;55906;52.278;6.808;2023-05-07T14:01:53;5.68;;;3.83;;
68870;SDS011;55906;52.278;6.808;2023-05-07T14:04:20;7.57;;;4.80;;
68870;SDS011;55906;52.278;6.808;2023-05-07T14:06:47;6.53;;;4.05;;
68870;SDS011;55906;52.278;6.808;2023-05-07T14:09:15;6.32;;;4.32;;
68870;SDS011;55906;52.278;6.808;2023-05-07T14:11:41;7.13;;;3.95;;
68870;SDS011;55906;52.278;6.808;2023-05-07T14:14:08;6.82;;;5.10;;
68870;SDS011;55906;52.278;6.808;2023-05-07T14:16:35;7.97;;;5.27;;
68870;SDS011;55906;52.278;6.808;2023-05-07T14:19:02;7.28;;;4.63;;
68870;SDS011;55906;52.278;6.808;2023-05-07T14:21:29;6.13;;;4.53;;
68870;SDS011;55906;52.278;6.808;2023-05-07T14:23:56;5.80;;;4.18;;
68870;SDS011;55906;52.278;6.808;2023-05-07T14:26:24;11.90;;;7.25;;
68870;SDS011;55906;52.278;6.808;2023-05-07T14:28:52;8.67;;;6.20;;
68870;SDS011;55906;52.278;6.808;2023-05-07T14:31:20;6.53;;;4.38;;
68870;SDS011;55906;52.278;6.808;2023-05-07T14:33:46;7.72;;;5.10;;
68870;SDS011;55906;52.278;6.808;2023-05-07T14:36:14;8.85;;;5.75;;
68870;SDS011;55906;52.278;6.808;2023-05-07T14:38:41;8.27;;;4.95;;